sensor_id;sensor_type;location;lat;lon;timestamp;P1;durP1;ratioP1;P2;durP2;ratioP2
13493;SDS011;6819;50.886;4.332;2023-02-28T00:00:06;7.15;;;3.78;;
13493;SDS011;6819;50.886;4.332;2023-02-28T00:02:35;6.88;;;3.88;;
13493;SDS011;6819;50.886;4.332;2023-02-28T00:05:01;7.50;;;3.63;;
13493;SDS011;6819;50.886;4.332;2023-02-28T00:07:28;6.07;;;3.60;;
13493;SDS011;6819;50.886;4.332;2023-02-28T00:09:54;9.15;;;3.53;;
13493;SDS011;6819;50.886;4.332;2023-02-28T00:12:20;7.32;;;3.80;;
13493;SDS011;6819;50.886;4.332;2023-02-28T00:14:46;11.32;;;3.90;;
13493;SDS011;6819;50.886;4.332;2023-02-28T00:17:12;9.88;;;4.10;;
13493;SDS011;6819;50.886;4.332;2023-02-28T00:19:38;5.95;;;3.50;;
13493;SDS011;6819;50.886;4.332;2023-02-28T00:22:04;8.25;;;3.80;;
13493;SDS011;6819;50.886;4.332;2023-02-28T00:24:30;11.00;;;4.65;;
13493;SDS011;6819;50.886;4.332;2023-02-28T00:26:56;6.70;;;3.65;;
13493;SDS011;6819;50.886;4.332;2023-02-28T00:29:22;12.85;;;3.75;;
13493;SDS011;6819;50.886;4.332;2023-02-28T00:31:49;9.32;;;3.72;;
13493;SDS011;6819;50.886;4.332;2023-02-28T00:34:15;10.95;;;4.55;;
13493;SDS011;6819;50.886;4.332;2023-02-28T00:36:41;11.32;;;4.40;;
13493;SDS011;6819;50.886;4.332;2023-02-28T00:39:10;6.97;;;4.03;;
13493;SDS011;6819;50.886;4.332;2023-02-28T00:41:36;5.90;;;3.72;;
13493;SDS011;6819;50.886;4.332;2023-02-28T00:44:02;6.32;;;3.40;;
13493;SDS011;6819;50.886;4.332;2023-02-28T00:46:28;6.28;;;4.05;;
13493;SDS011;6819;50.886;4.332;2023-02-28T00:48:54;11.27;;;4.30;;
13493;SDS011;6819;50.886;4.332;2023-02-28T00:51:20;8.88;;;4.10;;
13493;SDS011;6819;50.886;4.332;2023-02-28T00:53:46;7.65;;;4.53;;
13493;SDS011;6819;50.886;4.332;2023-02-28T00:56:12;6.82;;;4.28;;
13493;SDS011;6819;50.886;4.332;2023-02-28T00:58:38;8.50;;;4.55;;
13493;SDS011;6819;50.886;4.332;2023-02-28T01:01:05;8.30;;;4.18;;
13493;SDS011;6819;50.886;4.332;2023-02-28T01:03:31;5.43;;;3.58;;
13493;SDS011;6819;50.886;4.332;2023-02-28T01:05:57;11.23;;;4.10;;
13493;SDS011;6819;50.886;4.332;2023-02-28T01:08:24;6.93;;;4.03;;
13493;SDS011;6819;50.886;4.332;2023-02-28T01:10:51;10.93;;;4.80;;
13493;SDS011;6819;50.886;4.332;2023-02-28T01:13:17;7.65;;;4.05;;
13493;SDS011;6819;50.886;4.332;2023-02-28T01:15:45;9.20;;;4.05;;
13493;SDS011;6819;50.886;4.332;2023-02-28T01:18:13;8.45;;;4.00;;
13493;SDS011;6819;50.886;4.332;2023-02-28T01:20:39;7.95;;;4.80;;
13493;SDS011;6819;50.886;4.332;2023-02-28T01:23:06;10.25;;;4.85;;
13493;SDS011;6819;50.886;4.332;2023-02-28T01:25:33;7.30;;;4.38;;
13493;SDS011;6819;50.886;4.332;2023-02-28T01:28:00;10.18;;;4.72;;
13493;SDS011;6819;50.886;4.332;2023-02-28T01:30:26;7.03;;;4.18;;
13493;SDS011;6819;50.886;4.332;2023-02-28T01:32:52;8.35;;;4.55;;
13493;SDS011;6819;50.886;4.332;2023-02-28T01:35:18;6.38;;;4.35;;
13493;SDS011;6819;50.886;4.332;2023-02-28T01:37:44;9.13;;;4.07;;
13493;SDS011;6819;50.886;4.332;2023-02-28T01:40:11;5.72;;;4.07;;
13493;SDS011;6819;50.886;4.332;2023-02-28T01:42:37;11.73;;;5.03;;
13493;SDS011;6819;50.886;4.332;2023-02-28T01:45:46;10.05;;;4.78;;
13493;SDS011;6819;50.886;4.332;2023-02-28T01:47:58;7.28;;;4.20;;
13493;SDS011;6819;50.886;4.332;2023-02-28T01:50:25;8.50;;;5.15;;
13493;SDS011;6819;50.886;4.332;2023-02-28T01:52:53;8.35;;;4.70;;
13493;SDS011;6819;50.886;4.332;2023-02-28T01:55:21;10.48;;;5.07;;
13493;SDS011;6819;50.886;4.332;2023-02-28T01:57:50;12.23;;;4.45;;
13493;SDS011;6819;50.886;4.332;2023-02-28T02:00:17;11.05;;;4.97;;
13493;SDS011;6819;50.886;4.332;2023-02-28T02:02:45;10.30;;;4.88;;
13493;SDS011;6819;50.886;4.332;2023-02-28T02:05:14;11.73;;;5.55;;
13493;SDS011;6819;50.886;4.332;2023-02-28T02:07:41;7.30;;;4.60;;
13493;SDS011;6819;50.886;4.332;2023-02-28T02:10:18;7.20;;;4.72;;
13493;SDS011;6819;50.886;4.332;2023-02-28T02:12:52;7.07;;;4.88;;
13493;SDS011;6819;50.886;4.332;2023-02-28T02:17:51;9.30;;;4.65;;
13493;SDS011;6819;50.886;4.332;2023-02-28T02:25:39;10.80;;;4.70;;
13493;SDS011;6819;50.886;4.332;2023-02-28T02:35:59;10.35;;;5.32;;
13493;SDS011;6819;50.886;4.332;2023-02-28T02:44:02;12.18;;;5.97;;
13493;SDS011;6819;50.886;4.332;2023-02-28T02:46:34;9.38;;;5.43;;
13493;SDS011;6819;50.886;4.332;2023-02-28T02:49:02;11.90;;;5.30;;
13493;SDS011;6819;50.886;4.332;2023-02-28T02:51:29;15.00;;;4.90;;
13493;SDS011;6819;50.886;4.332;2023-02-28T02:54:05;8.32;;;4.85;;
13493;SDS011;6819;50.886;4.332;2023-02-28T02:56:31;8.40;;;4.95;;
13493;SDS011;6819;50.886;4.332;2023-02-28T02:59:02;7.70;;;4.90;;
13493;SDS011;6819;50.886;4.332;2023-02-28T03:01:30;10.38;;;5.65;;
13493;SDS011;6819;50.886;4.332;2023-02-28T03:03:57;12.50;;;5.88;;
13493;SDS011;6819;50.886;4.332;2023-02-28T03:06:24;8.82;;;4.63;;
13493;SDS011;6819;50.886;4.332;2023-02-28T03:08:50;12.23;;;5.28;;
13493;SDS011;6819;50.886;4.332;2023-02-28T03:11:16;10.48;;;5.00;;
13493;SDS011;6819;50.886;4.332;2023-02-28T03:19:10;9.15;;;5.55;;
13493;SDS011;6819;50.886;4.332;2023-02-28T03:21:56;8.65;;;5.47;;
13493;SDS011;6819;50.886;4.332;2023-02-28T03:24:34;10.65;;;5.13;;
13493;SDS011;6819;50.886;4.332;2023-02-28T03:27:05;10.88;;;6.05;;
13493;SDS011;6819;50.886;4.332;2023-02-28T03:29:37;10.40;;;5.45;;
13493;SDS011;6819;50.886;4.332;2023-02-28T03:32:08;9.52;;;5.10;;
13493;SDS011;6819;50.886;4.332;2023-02-28T03:34:41;11.90;;;5.90;;
13493;SDS011;6819;50.886;4.332;2023-02-28T03:37:09;12.48;;;5.68;;
13493;SDS011;6819;50.886;4.332;2023-02-28T03:39:46;10.43;;;6.43;;
13493;SDS011;6819;50.886;4.332;2023-02-28T03:42:14;13.88;;;5.78;;
13493;SDS011;6819;50.886;4.332;2023-02-28T03:44:42;10.05;;;5.50;;
13493;SDS011;6819;50.886;4.332;2023-02-28T03:47:16;9.68;;;6.03;;
13493;SDS011;6819;50.886;4.332;2023-02-28T03:49:45;11.95;;;6.25;;
13493;SDS011;6819;50.886;4.332;2023-02-28T03:52:12;8.15;;;4.72;;
13493;SDS011;6819;50.886;4.332;2023-02-28T03:54:45;11.23;;;6.07;;
13493;SDS011;6819;50.886;4.332;2023-02-28T04:00:03;10.32;;;5.68;;
13493;SDS011;6819;50.886;4.332;2023-02-28T04:02:31;7.90;;;5.38;;
13493;SDS011;6819;50.886;4.332;2023-02-28T04:04:57;10.25;;;5.75;;
13493;SDS011;6819;50.886;4.332;2023-02-28T04:07:24;12.68;;;5.50;;
13493;SDS011;6819;50.886;4.332;2023-02-28T04:09:50;8.57;;;5.10;;
13493;SDS011;6819;50.886;4.332;2023-02-28T04:12:17;12.88;;;6.13;;
13493;SDS011;6819;50.886;4.332;2023-02-28T04:14:43;8.25;;;5.72;;
13493;SDS011;6819;50.886;4.332;2023-02-28T04:17:09;11.32;;;6.10;;
13493;SDS011;6819;50.886;4.332;2023-02-28T04:19:35;11.10;;;5.57;;
13493;SDS011;6819;50.886;4.332;2023-02-28T04:22:01;9.95;;;5.53;;
13493;SDS011;6819;50.886;4.332;2023-02-28T04:24:27;9.57;;;5.55;;
13493;SDS011;6819;50.886;4.332;2023-02-28T04:26:54;15.27;;;5.65;;
13493;SDS011;6819;50.886;4.332;2023-02-28T04:29:31;9.63;;;5.88;;
13493;SDS011;6819;50.886;4.332;2023-02-28T04:31:57;8.70;;;5.63;;
13493;SDS011;6819;50.886;4.332;2023-02-28T04:34:24;13.70;;;6.30;;
13493;SDS011;6819;50.886;4.332;2023-02-28T04:36:51;12.05;;;5.82;;
13493;SDS011;6819;50.886;4.332;2023-02-28T04:39:19;9.32;;;5.35;;
13493;SDS011;6819;50.886;4.332;2023-02-28T04:41:45;11.90;;;5.47;;
13493;SDS011;6819;50.886;4.332;2023-02-28T04:44:12;7.95;;;5.75;;
13493;SDS011;6819;50.886;4.332;2023-02-28T04:46:38;10.38;;;5.80;;
13493;SDS011;6819;50.886;4.332;2023-02-28T04:49:04;11.02;;;5.63;;
13493;SDS011;6819;50.886;4.332;2023-02-28T04:51:30;8.95;;;6.13;;
13493;SDS011;6819;50.886;4.332;2023-02-28T04:53:56;10.70;;;5.60;;
13493;SDS011;6819;50.886;4.332;2023-02-28T04:56:23;9.35;;;5.20;;
13493;SDS011;6819;50.886;4.332;2023-02-28T04:58:49;10.32;;;5.85;;
13493;SDS011;6819;50.886;4.332;2023-02-28T05:03:43;9.40;;;5.80;;
13493;SDS011;6819;50.886;4.332;2023-02-28T05:06:10;12.52;;;5.78;;
13493;SDS011;6819;50.886;4.332;2023-02-28T05:08:36;13.02;;;5.60;;
13493;SDS011;6819;50.886;4.332;2023-02-28T05:11:02;9.43;;;5.40;;
13493;SDS011;6819;50.886;4.332;2023-02-28T05:13:29;10.85;;;6.28;;
13493;SDS011;6819;50.886;4.332;2023-02-28T05:15:55;8.45;;;4.97;;
13493;SDS011;6819;50.886;4.332;2023-02-28T05:18:21;11.07;;;6.05;;
13493;SDS011;6819;50.886;4.332;2023-02-28T05:20:47;9.13;;;5.70;;
13493;SDS011;6819;50.886;4.332;2023-02-28T05:23:14;10.85;;;6.10;;
13493;SDS011;6819;50.886;4.332;2023-02-28T05:25:40;10.70;;;5.93;;
13493;SDS011;6819;50.886;4.332;2023-02-28T05:28:06;17.00;;;6.18;;
13493;SDS011;6819;50.886;4.332;2023-02-28T05:30:33;9.57;;;5.40;;
13493;SDS011;6819;50.886;4.332;2023-02-28T05:32:59;16.17;;;6.22;;
13493;SDS011;6819;50.886;4.332;2023-02-28T05:35:25;10.27;;;5.88;;
13493;SDS011;6819;50.886;4.332;2023-02-28T05:37:51;10.98;;;5.63;;
13493;SDS011;6819;50.886;4.332;2023-02-28T05:40:18;13.68;;;5.88;;
13493;SDS011;6819;50.886;4.332;2023-02-28T05:42:45;9.73;;;5.82;;
13493;SDS011;6819;50.886;4.332;2023-02-28T05:45:11;9.50;;;5.30;;
13493;SDS011;6819;50.886;4.332;2023-02-28T05:47:37;8.45;;;5.43;;
13493;SDS011;6819;50.886;4.332;2023-02-28T05:50:03;12.90;;;6.70;;
13493;SDS011;6819;50.886;4.332;2023-02-28T05:52:30;11.55;;;6.07;;
13493;SDS011;6819;50.886;4.332;2023-02-28T05:54:56;13.45;;;6.32;;
13493;SDS011;6819;50.886;4.332;2023-02-28T05:57:22;15.63;;;5.78;;
13493;SDS011;6819;50.886;4.332;2023-02-28T05:59:48;9.95;;;5.15;;
13493;SDS011;6819;50.886;4.332;2023-02-28T06:02:15;10.55;;;5.93;;
13493;SDS011;6819;50.886;4.332;2023-02-28T06:04:42;15.40;;;5.93;;
13493;SDS011;6819;50.886;4.332;2023-02-28T06:07:08;14.05;;;6.30;;
13493;SDS011;6819;50.886;4.332;2023-02-28T06:09:34;10.32;;;5.30;;
13493;SDS011;6819;50.886;4.332;2023-02-28T06:12:01;10.88;;;5.95;;
13493;SDS011;6819;50.886;4.332;2023-02-28T06:14:30;8.57;;;5.63;;
13493;SDS011;6819;50.886;4.332;2023-02-28T06:16:57;12.32;;;6.28;;
13493;SDS011;6819;50.886;4.332;2023-02-28T06:19:23;9.77;;;5.68;;
13493;SDS011;6819;50.886;4.332;2023-02-28T06:21:52;12.73;;;6.65;;
13493;SDS011;6819;50.886;4.332;2023-02-28T06:24:19;12.18;;;5.45;;
13493;SDS011;6819;50.886;4.332;2023-02-28T06:26:46;17.33;;;6.60;;
13493;SDS011;6819;50.886;4.332;2023-02-28T06:29:12;11.75;;;6.15;;
13493;SDS011;6819;50.886;4.332;2023-02-28T06:31:42;8.02;;;5.35;;
13493;SDS011;6819;50.886;4.332;2023-02-28T06:34:11;9.95;;;6.32;;
13493;SDS011;6819;50.886;4.332;2023-02-28T06:36:38;16.73;;;6.18;;
13493;SDS011;6819;50.886;4.332;2023-02-28T06:39:04;13.63;;;6.03;;
13493;SDS011;6819;50.886;4.332;2023-02-28T06:41:30;11.27;;;6.50;;
13493;SDS011;6819;50.886;4.332;2023-02-28T06:43:56;7.72;;;5.30;;
13493;SDS011;6819;50.886;4.332;2023-02-28T06:46:22;11.13;;;5.72;;
13493;SDS011;6819;50.886;4.332;2023-02-28T06:48:49;6.93;;;4.65;;
13493;SDS011;6819;50.886;4.332;2023-02-28T06:51:16;11.05;;;6.20;;
13493;SDS011;6819;50.886;4.332;2023-02-28T06:53:45;14.57;;;5.65;;
13493;SDS011;6819;50.886;4.332;2023-02-28T06:56:12;12.93;;;5.57;;
13493;SDS011;6819;50.886;4.332;2023-02-28T06:58:39;9.73;;;5.55;;
13493;SDS011;6819;50.886;4.332;2023-02-28T07:01:05;9.75;;;5.82;;
13493;SDS011;6819;50.886;4.332;2023-02-28T07:03:32;11.05;;;6.47;;
13493;SDS011;6819;50.886;4.332;2023-02-28T07:05:58;15.80;;;5.80;;
13493;SDS011;6819;50.886;4.332;2023-02-28T07:08:25;7.78;;;5.40;;
13493;SDS011;6819;50.886;4.332;2023-02-28T07:10:54;20.25;;;6.10;;
13493;SDS011;6819;50.886;4.332;2023-02-28T07:13:21;8.60;;;5.47;;
13493;SDS011;6819;50.886;4.332;2023-02-28T07:15:54;10.10;;;5.53;;
13493;SDS011;6819;50.886;4.332;2023-02-28T07:18:20;8.15;;;5.70;;
13493;SDS011;6819;50.886;4.332;2023-02-28T07:20:46;11.55;;;6.18;;
13493;SDS011;6819;50.886;4.332;2023-02-28T07:23:12;8.70;;;5.15;;
13493;SDS011;6819;50.886;4.332;2023-02-28T07:25:38;12.18;;;5.45;;
13493;SDS011;6819;50.886;4.332;2023-02-28T07:28:04;9.38;;;5.47;;
13493;SDS011;6819;50.886;4.332;2023-02-28T07:30:30;9.43;;;5.38;;
13493;SDS011;6819;50.886;4.332;2023-02-28T07:32:56;16.67;;;6.07;;
13493;SDS011;6819;50.886;4.332;2023-02-28T07:35:23;8.85;;;5.32;;
13493;SDS011;6819;50.886;4.332;2023-02-28T07:37:49;7.88;;;5.13;;
13493;SDS011;6819;50.886;4.332;2023-02-28T07:40:15;12.23;;;5.72;;
13493;SDS011;6819;50.886;4.332;2023-02-28T07:42:43;7.65;;;4.60;;
13493;SDS011;6819;50.886;4.332;2023-02-28T07:45:09;13.73;;;5.50;;
13493;SDS011;6819;50.886;4.332;2023-02-28T07:47:39;9.50;;;4.72;;
13493;SDS011;6819;50.886;4.332;2023-02-28T07:50:08;10.02;;;4.60;;
13493;SDS011;6819;50.886;4.332;2023-02-28T07:52:36;8.75;;;4.72;;
13493;SDS011;6819;50.886;4.332;2023-02-28T07:55:02;6.50;;;4.85;;
13493;SDS011;6819;50.886;4.332;2023-02-28T07:57:28;15.25;;;4.80;;
13493;SDS011;6819;50.886;4.332;2023-02-28T07:59:54;8.27;;;4.45;;
13493;SDS011;6819;50.886;4.332;2023-02-28T08:02:20;10.13;;;4.93;;
13493;SDS011;6819;50.886;4.332;2023-02-28T08:04:46;7.55;;;4.28;;
13493;SDS011;6819;50.886;4.332;2023-02-28T08:07:13;12.27;;;4.72;;
13493;SDS011;6819;50.886;4.332;2023-02-28T08:09:39;8.40;;;4.53;;
13493;SDS011;6819;50.886;4.332;2023-02-28T08:12:06;9.65;;;4.85;;
13493;SDS011;6819;50.886;4.332;2023-02-28T08:14:35;13.57;;;4.32;;
13493;SDS011;6819;50.886;4.332;2023-02-28T08:17:02;14.25;;;4.20;;
13493;SDS011;6819;50.886;4.332;2023-02-28T08:19:28;5.55;;;3.65;;
13493;SDS011;6819;50.886;4.332;2023-02-28T08:21:55;5.57;;;3.65;;
13493;SDS011;6819;50.886;4.332;2023-02-28T08:24:21;5.40;;;3.17;;
13493;SDS011;6819;50.886;4.332;2023-02-28T08:26:47;7.15;;;3.65;;
13493;SDS011;6819;50.886;4.332;2023-02-28T08:29:13;7.95;;;3.15;;
13493;SDS011;6819;50.886;4.332;2023-02-28T08:31:39;5.18;;;3.05;;
13493;SDS011;6819;50.886;4.332;2023-02-28T08:34:09;6.70;;;3.03;;
13493;SDS011;6819;50.886;4.332;2023-02-28T08:36:35;7.65;;;3.28;;
13493;SDS011;6819;50.886;4.332;2023-02-28T08:39:02;5.32;;;3.38;;
13493;SDS011;6819;50.886;4.332;2023-02-28T08:41:28;8.05;;;3.50;;
13493;SDS011;6819;50.886;4.332;2023-02-28T08:43:54;4.70;;;2.95;;
13493;SDS011;6819;50.886;4.332;2023-02-28T08:46:20;5.45;;;2.83;;
13493;SDS011;6819;50.886;4.332;2023-02-28T08:48:47;10.50;;;3.53;;
13493;SDS011;6819;50.886;4.332;2023-02-28T08:51:14;3.95;;;2.92;;
13493;SDS011;6819;50.886;4.332;2023-02-28T08:53:43;5.70;;;2.60;;
13493;SDS011;6819;50.886;4.332;2023-02-28T08:56:10;3.53;;;2.40;;
13493;SDS011;6819;50.886;4.332;2023-02-28T08:58:36;3.63;;;2.55;;
13493;SDS011;6819;50.886;4.332;2023-02-28T09:01:09;4.97;;;2.90;;
13493;SDS011;6819;50.886;4.332;2023-02-28T09:03:36;5.18;;;2.45;;
13493;SDS011;6819;50.886;4.332;2023-02-28T09:06:03;3.83;;;2.60;;
13493;SDS011;6819;50.886;4.332;2023-02-28T09:08:30;4.07;;;2.47;;
13493;SDS011;6819;50.886;4.332;2023-02-28T09:10:56;5.78;;;2.97;;
13493;SDS011;6819;50.886;4.332;2023-02-28T09:13:23;10.68;;;2.33;;
13493;SDS011;6819;50.886;4.332;2023-02-28T09:15:49;4.47;;;2.20;;
13493;SDS011;6819;50.886;4.332;2023-02-28T09:18:15;4.93;;;2.28;;
13493;SDS011;6819;50.886;4.332;2023-02-28T09:20:42;3.72;;;2.47;;
13493;SDS011;6819;50.886;4.332;2023-02-28T09:23:09;5.32;;;2.70;;
13493;SDS011;6819;50.886;4.332;2023-02-28T09:25:35;4.35;;;2.33;;
13493;SDS011;6819;50.886;4.332;2023-02-28T09:28:01;5.50;;;2.80;;
13493;SDS011;6819;50.886;4.332;2023-02-28T09:30:27;5.55;;;2.28;;
13493;SDS011;6819;50.886;4.332;2023-02-28T09:32:53;5.35;;;2.90;;
13493;SDS011;6819;50.886;4.332;2023-02-28T09:35:23;3.70;;;2.45;;
13493;SDS011;6819;50.886;4.332;2023-02-28T09:37:50;4.53;;;2.63;;
13493;SDS011;6819;50.886;4.332;2023-02-28T09:40:20;4.05;;;2.53;;
13493;SDS011;6819;50.886;4.332;2023-02-28T09:42:46;6.03;;;2.85;;
13493;SDS011;6819;50.886;4.332;2023-02-28T09:45:19;5.78;;;2.90;;
13493;SDS011;6819;50.886;4.332;2023-02-28T09:47:46;3.38;;;2.33;;
13493;SDS011;6819;50.886;4.332;2023-02-28T09:50:27;5.45;;;2.78;;
13493;SDS011;6819;50.886;4.332;2023-02-28T09:52:54;6.55;;;2.33;;
13493;SDS011;6819;50.886;4.332;2023-02-28T09:55:32;4.57;;;2.35;;
13493;SDS011;6819;50.886;4.332;2023-02-28T09:57:59;5.10;;;3.53;;
13493;SDS011;6819;50.886;4.332;2023-02-28T10:08:35;5.38;;;2.45;;
13493;SDS011;6819;50.886;4.332;2023-02-28T10:11:06;4.13;;;2.90;;
13493;SDS011;6819;50.886;4.332;2023-02-28T10:13:53;3.33;;;2.15;;
13493;SDS011;6819;50.886;4.332;2023-02-28T10:16:28;4.03;;;2.25;;
13493;SDS011;6819;50.886;4.332;2023-02-28T10:18:57;5.60;;;2.50;;
13493;SDS011;6819;50.886;4.332;2023-02-28T10:21:27;4.07;;;2.33;;
13493;SDS011;6819;50.886;4.332;2023-02-28T10:23:57;5.32;;;2.10;;
13493;SDS011;6819;50.886;4.332;2023-02-28T10:26:26;5.70;;;2.20;;
13493;SDS011;6819;50.886;4.332;2023-02-28T10:28:54;5.60;;;2.28;;
13493;SDS011;6819;50.886;4.332;2023-02-28T10:31:20;3.55;;;2.00;;
13493;SDS011;6819;50.886;4.332;2023-02-28T10:33:46;2.88;;;2.05;;
13493;SDS011;6819;50.886;4.332;2023-02-28T10:36:17;3.95;;;2.17;;
13493;SDS011;6819;50.886;4.332;2023-02-28T10:38:44;3.95;;;2.22;;
13493;SDS011;6819;50.886;4.332;2023-02-28T10:41:15;5.40;;;2.13;;
13493;SDS011;6819;50.886;4.332;2023-02-28T10:43:42;4.40;;;2.33;;
13493;SDS011;6819;50.886;4.332;2023-02-28T10:48:43;4.55;;;1.98;;
13493;SDS011;6819;50.886;4.332;2023-02-28T10:51:14;4.43;;;2.30;;
13493;SDS011;6819;50.886;4.332;2023-02-28T11:03:58;4.47;;;1.77;;
13493;SDS011;6819;50.886;4.332;2023-02-28T11:06:31;5.35;;;1.70;;
13493;SDS011;6819;50.886;4.332;2023-02-28T11:08:59;4.22;;;1.50;;
13493;SDS011;6819;50.886;4.332;2023-02-28T11:11:26;3.05;;;1.90;;
13493;SDS011;6819;50.886;4.332;2023-02-28T11:13:54;3.15;;;1.70;;
13493;SDS011;6819;50.886;4.332;2023-02-28T11:16:21;3.83;;;1.73;;
13493;SDS011;6819;50.886;4.332;2023-02-28T11:18:49;3.75;;;1.90;;
13493;SDS011;6819;50.886;4.332;2023-02-28T11:21:20;3.72;;;2.00;;
13493;SDS011;6819;50.886;4.332;2023-02-28T11:23:46;3.40;;;2.30;;
13493;SDS011;6819;50.886;4.332;2023-02-28T11:26:14;4.82;;;2.00;;
13493;SDS011;6819;50.886;4.332;2023-02-28T11:28:41;2.42;;;1.70;;
13493;SDS011;6819;50.886;4.332;2023-02-28T11:36:10;3.95;;;2.38;;
13493;SDS011;6819;50.886;4.332;2023-02-28T11:38:37;4.22;;;2.10;;
13493;SDS011;6819;50.886;4.332;2023-02-28T11:46:00;5.22;;;2.17;;
13493;SDS011;6819;50.886;4.332;2023-02-28T11:48:36;8.15;;;2.58;;
13493;SDS011;6819;50.886;4.332;2023-02-28T11:51:20;9.93;;;2.83;;
13493;SDS011;6819;50.886;4.332;2023-02-28T12:03:44;5.35;;;1.98;;
13493;SDS011;6819;50.886;4.332;2023-02-28T12:06:18;4.13;;;2.03;;
13493;SDS011;6819;50.886;4.332;2023-02-28T12:15:01;3.63;;;2.15;;
13493;SDS011;6819;50.886;4.332;2023-02-28T12:16:55;4.28;;;2.95;;
13493;SDS011;6819;50.886;4.332;2023-02-28T12:19:46;4.60;;;2.38;;
13493;SDS011;6819;50.886;4.332;2023-02-28T12:27:26;5.80;;;2.40;;
13493;SDS011;6819;50.886;4.332;2023-02-28T12:29:56;3.88;;;2.40;;
13493;SDS011;6819;50.886;4.332;2023-02-28T12:32:30;7.50;;;2.53;;
13493;SDS011;6819;50.886;4.332;2023-02-28T12:35:00;4.60;;;2.28;;
13493;SDS011;6819;50.886;4.332;2023-02-28T12:37:37;3.45;;;2.28;;
13493;SDS011;6819;50.886;4.332;2023-02-28T12:40:09;4.97;;;2.20;;
13493;SDS011;6819;50.886;4.332;2023-02-28T12:42:38;4.35;;;2.10;;
13493;SDS011;6819;50.886;4.332;2023-02-28T12:47:33;6.15;;;2.00;;
13493;SDS011;6819;50.886;4.332;2023-02-28T12:50:02;7.13;;;2.40;;
13493;SDS011;6819;50.886;4.332;2023-02-28T12:55:55;4.22;;;2.25;;
13493;SDS011;6819;50.886;4.332;2023-02-28T12:58:38;7.85;;;2.50;;
13493;SDS011;6819;50.886;4.332;2023-02-28T13:09:09;6.90;;;2.70;;
13493;SDS011;6819;50.886;4.332;2023-02-28T13:14:06;4.15;;;2.05;;
13493;SDS011;6819;50.886;4.332;2023-02-28T13:16:54;5.53;;;2.53;;
13493;SDS011;6819;50.886;4.332;2023-02-28T13:19:22;3.58;;;2.00;;
13493;SDS011;6819;50.886;4.332;2023-02-28T13:21:49;4.05;;;2.28;;
13493;SDS011;6819;50.886;4.332;2023-02-28T13:47:19;4.00;;;2.53;;
13493;SDS011;6819;50.886;4.332;2023-02-28T13:49:46;2.83;;;2.10;;
13493;SDS011;6819;50.886;4.332;2023-02-28T13:54:53;2.97;;;2.20;;
13493;SDS011;6819;50.886;4.332;2023-02-28T13:57:27;3.63;;;2.30;;
13493;SDS011;6819;50.886;4.332;2023-02-28T14:05:13;5.85;;;2.53;;
13493;SDS011;6819;50.886;4.332;2023-02-28T14:07:44;4.05;;;2.60;;
13493;SDS011;6819;50.886;4.332;2023-02-28T14:10:22;3.90;;;2.53;;
13493;SDS011;6819;50.886;4.332;2023-02-28T14:17:54;3.83;;;2.28;;
13493;SDS011;6819;50.886;4.332;2023-02-28T14:20:21;4.57;;;2.78;;
13493;SDS011;6819;50.886;4.332;2023-02-28T14:22:54;4.32;;;2.30;;
13493;SDS011;6819;50.886;4.332;2023-02-28T14:33:18;5.40;;;2.90;;
13493;SDS011;6819;50.886;4.332;2023-02-28T14:38:33;4.47;;;2.47;;
13493;SDS011;6819;50.886;4.332;2023-02-28T14:41:02;5.88;;;2.47;;
13493;SDS011;6819;50.886;4.332;2023-02-28T14:43:28;4.50;;;2.50;;
13493;SDS011;6819;50.886;4.332;2023-02-28T14:46:01;7.10;;;2.50;;
13493;SDS011;6819;50.886;4.332;2023-02-28T14:48:28;4.82;;;2.60;;
13493;SDS011;6819;50.886;4.332;2023-02-28T14:50:55;5.00;;;3.03;;
13493;SDS011;6819;50.886;4.332;2023-02-28T14:53:22;4.63;;;2.97;;
13493;SDS011;6819;50.886;4.332;2023-02-28T14:55:49;3.95;;;2.63;;
13493;SDS011;6819;50.886;4.332;2023-02-28T15:00:51;6.85;;;2.70;;
13493;SDS011;6819;50.886;4.332;2023-02-28T15:03:19;5.03;;;2.60;;
13493;SDS011;6819;50.886;4.332;2023-02-28T15:06:05;3.33;;;2.35;;
13493;SDS011;6819;50.886;4.332;2023-02-28T15:08:32;7.63;;;3.45;;
13493;SDS011;6819;50.886;4.332;2023-02-28T15:11:07;6.35;;;2.47;;
13493;SDS011;6819;50.886;4.332;2023-02-28T15:13:44;3.95;;;2.75;;
13493;SDS011;6819;50.886;4.332;2023-02-28T15:16:19;3.50;;;2.95;;
13493;SDS011;6819;50.886;4.332;2023-02-28T15:18:47;4.40;;;2.72;;
13493;SDS011;6819;50.886;4.332;2023-02-28T15:21:18;6.32;;;2.63;;
13493;SDS011;6819;50.886;4.332;2023-02-28T15:23:46;4.00;;;2.80;;
13493;SDS011;6819;50.886;4.332;2023-02-28T15:26:15;2.97;;;2.47;;
13493;SDS011;6819;50.886;4.332;2023-02-28T15:28:42;6.03;;;3.00;;
13493;SDS011;6819;50.886;4.332;2023-02-28T15:31:31;4.88;;;2.50;;
13493;SDS011;6819;50.886;4.332;2023-02-28T15:33:55;4.82;;;2.97;;
13493;SDS011;6819;50.886;4.332;2023-02-28T15:36:24;3.40;;;2.53;;
13493;SDS011;6819;50.886;4.332;2023-02-28T15:38:52;6.20;;;2.95;;
13493;SDS011;6819;50.886;4.332;2023-02-28T15:41:24;6.93;;;2.53;;
13493;SDS011;6819;50.886;4.332;2023-02-28T15:43:57;5.82;;;3.20;;
13493;SDS011;6819;50.886;4.332;2023-02-28T15:46:36;4.55;;;2.85;;
13493;SDS011;6819;50.886;4.332;2023-02-28T15:49:02;5.47;;;2.90;;
13493;SDS011;6819;50.886;4.332;2023-02-28T15:51:33;4.10;;;2.50;;
13493;SDS011;6819;50.886;4.332;2023-02-28T15:54:01;4.18;;;2.78;;
13493;SDS011;6819;50.886;4.332;2023-02-28T15:56:28;4.30;;;2.60;;
13493;SDS011;6819;50.886;4.332;2023-02-28T15:58:56;5.15;;;2.78;;
13493;SDS011;6819;50.886;4.332;2023-02-28T16:01:25;3.97;;;2.88;;
13493;SDS011;6819;50.886;4.332;2023-02-28T16:03:58;3.88;;;2.90;;
13493;SDS011;6819;50.886;4.332;2023-02-28T16:06:35;3.90;;;2.80;;
13493;SDS011;6819;50.886;4.332;2023-02-28T16:09:02;4.35;;;2.88;;
13493;SDS011;6819;50.886;4.332;2023-02-28T16:11:29;4.03;;;2.65;;
13493;SDS011;6819;50.886;4.332;2023-02-28T16:13:55;6.80;;;3.00;;
13493;SDS011;6819;50.886;4.332;2023-02-28T16:16:23;4.68;;;2.90;;
13493;SDS011;6819;50.886;4.332;2023-02-28T16:18:50;7.38;;;2.75;;
13493;SDS011;6819;50.886;4.332;2023-02-28T16:21:16;3.53;;;2.60;;
13493;SDS011;6819;50.886;4.332;2023-02-28T16:23:42;4.95;;;2.90;;
13493;SDS011;6819;50.886;4.332;2023-02-28T16:26:08;4.45;;;2.70;;
13493;SDS011;6819;50.886;4.332;2023-02-28T16:28:41;4.85;;;2.83;;
13493;SDS011;6819;50.886;4.332;2023-02-28T16:31:09;4.85;;;2.90;;
13493;SDS011;6819;50.886;4.332;2023-02-28T16:33:41;4.55;;;2.63;;
13493;SDS011;6819;50.886;4.332;2023-02-28T16:36:09;6.82;;;3.17;;
13493;SDS011;6819;50.886;4.332;2023-02-28T16:38:35;7.70;;;2.80;;
13493;SDS011;6819;50.886;4.332;2023-02-28T16:41:01;5.47;;;2.70;;
13493;SDS011;6819;50.886;4.332;2023-02-28T16:43:27;4.93;;;3.22;;
13493;SDS011;6819;50.886;4.332;2023-02-28T16:45:54;6.75;;;2.92;;
13493;SDS011;6819;50.886;4.332;2023-02-28T16:48:24;6.00;;;2.42;;
13493;SDS011;6819;50.886;4.332;2023-02-28T16:50:51;6.22;;;3.05;;
13493;SDS011;6819;50.886;4.332;2023-02-28T16:53:17;7.60;;;2.88;;
13493;SDS011;6819;50.886;4.332;2023-02-28T16:55:43;5.03;;;2.63;;
13493;SDS011;6819;50.886;4.332;2023-02-28T16:58:13;8.40;;;2.60;;
13493;SDS011;6819;50.886;4.332;2023-02-28T17:00:39;5.13;;;2.70;;
13493;SDS011;6819;50.886;4.332;2023-02-28T17:03:08;6.50;;;3.05;;
13493;SDS011;6819;50.886;4.332;2023-02-28T17:05:36;7.35;;;3.20;;
13493;SDS011;6819;50.886;4.332;2023-02-28T17:08:04;7.40;;;2.95;;
13493;SDS011;6819;50.886;4.332;2023-02-28T17:10:30;5.90;;;2.85;;
13493;SDS011;6819;50.886;4.332;2023-02-28T17:12:56;5.60;;;3.08;;
13493;SDS011;6819;50.886;4.332;2023-02-28T17:15:22;7.43;;;3.58;;
13493;SDS011;6819;50.886;4.332;2023-02-28T17:17:48;7.30;;;3.40;;
13493;SDS011;6819;50.886;4.332;2023-02-28T17:22:42;6.07;;;3.00;;
13493;SDS011;6819;50.886;4.332;2023-02-28T17:25:08;5.72;;;3.50;;
13493;SDS011;6819;50.886;4.332;2023-02-28T17:27:35;8.85;;;3.80;;
13493;SDS011;6819;50.886;4.332;2023-02-28T17:30:03;5.90;;;2.97;;
13493;SDS011;6819;50.886;4.332;2023-02-28T17:32:34;5.30;;;3.05;;
13493;SDS011;6819;50.886;4.332;2023-02-28T17:35:00;5.70;;;3.67;;